Bridgeville, PA (15017)

11:16 PM EST on December 17, 2014 (GMT -0500)
Olde Orchard South Fayette Bridgeville | Change Station
CLOSE
Current Station
Personal Weather Station
Location: Bridgeville, PA
Elevation: 1040 ft
Nearby Weather Stations

Elev 1040 ft 40.34 °N, 80.12 °W | Updated 13 seconds ago

Overcast
Overcast
29.8 °F
Feels Like 30 °F
N
0.0
Wind Variable Wind from SE
Gusts 0.0 mph

Today
High -- | Low -- °F
--% Chance of Precip.
Yesterday
High -- | Low -- °F
Precip. -- in
7:37 AM 4:55 PM
Waning Crescent, 17% visible
Pressure 30.16 in
Visibility 10.0 miles
Clouds Overcast 2200 ft
Windchill 30 °F
Dew Point 24 °F
Humidity 79%
Rainfall 0.01 in
Snow Depth Not available.
UV 0 out of 12
Pollen .10 out of 12
Air Quality Not available.
Flu Activity Not available.
METAR KAGC 180353Z 30007KT 280V340 10SM OVC022 M02/M07 A3011 RMK AO2 SNB0254E04 SLP213 P0000 T10171072

More Conditions Fewer Conditions

Pressure 30.16 in
Visibility 10.0 miles
Clouds Overcast 2200 ft
Windchill 30 °F
Dew Point 24 °F
Humidity 79%
Rainfall 0.01 in
Snow Depth Not available.
UV 0 out of 12
Pollen .10 out of 12
Air Quality Not available.
Flu Activity Not available.
METAR KAGC 180353Z 30007KT 280V340 10SM OVC022 M02/M07 A3011 RMK AO2 SNB0254E04 SLP213 P0000 T10171072

More Conditions Fewer Conditions

10-Day Weather Forecast

Almanac

Astronomy

Dec. 17, 2014 Rise Set
Actual Time
Civil Twilight
Nautical Twilight
Astronomical Twilight
Moon
Length of Visible Light
Length of Day
Tomorrow will be .
, % of the Moon is Illuminated

Today's Extremes

State Highs State Lows

Community

WunderPhotos

Upload Photos

1,778,880 photos uploaded!

WunderBlogs® & News

Nearby

Air Quality

  Air Quality AQ Index Pollutant
Not available.

Snow Depth

Station Depth Elevation

Earthquake Activity

City Distance Mag. Time & Date
Minimum magnitude displayed is 2.5.

Coastal Water Temperatures

Place Temperature

Nearby Weather Stations